Latest Weather Observations for Tindal

IDD60801

Issued at 10:31 am CST Thursday 21 November 2019 (issued every 10 minutes, with the page automatically refreshed every 10 minutes)

About weather observations | Map of weather stations | Latest weather observations for NT | Other Formats
Station Details ID: 014932 Name: TINDAL RAAF Lat: -14.52 Lon: 132.38 Height: 133.6 m
Data from the previous 72 hours. | See also: Recent months at Tindal
Date/Time
CST
Temp
°C
App
Temp
°C
Dew
Point
°C
Rel
Hum
%
Delta-T
°C
Wind Press
QNH
hPa
Press
MSL
hPa
Rain since
9am
mm
Dir  Spd
km/h
Gust
km/h
Spd
kts
Gust
kts
21/10:30am 34.4 33.4 17.6 37 10.9 NW 19 26 10 14 1011.2 1010.1 0.0
21/10:00am 33.6 32.7 17.7 38 10.3 NNW 19 26 10 14 1011.6 1010.5 0.0
21/09:30am 32.9 33.2 18.7 43 9.3 NW 15 24 8 13 1011.9 1010.8 0.0
21/09:00am 32.0 32.9 19.3 47 8.4 WNW 13 22 7 12 1012.0 1011.0 0.0
21/08:30am 31.4 31.5 19.1 48 8.1 WNW 17 24 9 13 1011.8 1010.7 0.0
21/08:00am 30.1 30.4 19.5 53 7.0 WNW 17 24 9 13 1011.7 1010.6 0.0
21/07:30am 29.5 29.6 19.2 54 6.7 W 17 20 9 11 1011.7 1010.6 0.0
21/07:00am 28.3 29.6 18.4 55 6.4 W 9 13 5 7 1011.1 1010.0 0.0
21/06:30am 27.6 28.7 18.0 55 6.1 WNW 9 11 5 6 1010.7 1009.6 0.0
21/06:00am 27.3 28.9 18.3 58 5.8 WNW 7 9 4 5 1010.3 1009.2 0.0
21/05:30am 28.0 29.5 18.1 55 6.3 NNW 7 9 4 5 1009.6 1008.5 0.0
21/05:00am 29.1 30.9 18.2 51 7.0 N 6 9 3 5 1009.4 1008.3 0.0
21/04:30am 29.3 30.8 18.1 51 7.2 N 7 9 4 5 1009.1 1008.0 0.0
21/04:00am 29.2 30.4 18.3 51 7.0 NNW 9 11 5 6 1008.9 1007.8 0.0
21/03:30am 29.9 31.1 18.3 49 7.5 NNW 9 11 5 6 1008.5 1007.4 0.0
21/03:00am 30.2 31.6 18.6 49 7.5 NNW 9 13 5 7 1008.7 1007.6 0.0
21/02:30am 30.5 32.1 19.2 51 7.4 N 9 15 5 8 1008.8 1007.7 0.0
21/02:00am 30.9 31.6 18.9 48 7.8 N 13 20 7 11 1009.1 1008.0 0.0
21/01:30am 31.3 31.5 18.6 46 8.3 N 15 24 8 13 1009.1 1008.0 0.0
21/01:00am 31.1 31.7 18.5 47 8.2 NNW 13 19 7 10 1009.1 1008.0 0.0
21/12:30am 31.2 31.1 17.9 45 8.6 NNW 15 20 8 11 1009.5 1008.4 0.0
21/12:00am 31.2 29.5 17.1 42 9.0 NNW 22 28 12 15 1009.3 1008.2 0.0
 
Date/Time
CST
Temp
°C
App
Temp
°C
Dew
Point
°C
Rel
Hum
%
Delta-T
°C
Wind Press
QNH
hPa
Press
MSL
hPa
Rain since
9am
mm
Dir  Spd
km/h
Gust
km/h
Spd
kts
Gust
kts
20/11:30pm 31.5 29.4 16.3 40 9.6 NNW 22 35 12 19 1009.2 1008.1 0.0
20/11:00pm 31.8 30.0 16.9 40 9.5 NW 22 32 12 17 1009.2 1008.1 0.0
20/10:30pm 32.3 29.8 17.0 40 9.8 NW 26 35 14 19 1008.8 1007.7 0.0
20/10:00pm 33.1 31.1 17.3 39 10.1 NW 24 32 13 17 1008.5 1007.4 0.0
20/09:30pm 33.4 31.0 14.5 32 11.7 NW 20 32 11 17 1007.7 1006.7 0.0
20/09:00pm 31.1 30.3 11.0 29 11.7 E 6 7 3 4 1007.0 1006.0 0.0
20/08:30pm 31.4 31.3 10.7 28 12.0 ESE 2 6 1 3 1006.8 1005.8 0.0
20/08:00pm 33.5 32.8 10.2 24 13.5 SW 4 6 2 3 1006.5 1005.5 0.0
20/07:30pm 34.4 33.2 10.3 23 14.1 SW 7 9 4 5 1006.1 1005.1 0.0
20/07:00pm 35.9 34.7 9.4 20 15.3 SW 6 9 3 5 1005.8 1004.8 0.0
20/06:30pm 38.2 36.8 8.9 17 17.0 NW 6 11 3 6 1005.6 1004.6 0.0
20/06:00pm 38.7 36.2 6.4 14 18.1 E 9 13 5 7 1005.4 1004.4 0.0
20/05:30pm 39.1 35.9 6.7 14 18.3 E 13 26 7 14 1005.4 1004.4 0.0
20/05:00pm 39.1 36.9 7.7 15 18.0 SSE 9 20 5 11 1005.3 1004.3 0.0
20/04:30pm 39.6 38.0 8.1 15 18.2 E 6 15 3 8 1005.3 1004.3 0.0
20/04:00pm 39.2 37.5 9.7 17 17.4 ENE 9 13 5 7 1005.1 1004.0 0.0
20/03:30pm 39.1 36.0 10.4 18 17.1 NE 17 30 9 16 1005.5 1004.5 0.0
20/03:00pm 39.2 37.7 10.5 18 17.1 ENE 9 19 5 10 1005.9 1004.9 0.0
20/02:30pm 40.5 39.0 10.7 17 17.9 SSW 9 17 5 9 1006.2 1005.2 0.0
20/02:00pm 39.4 37.7 12.3 20 16.6 SE 13 20 7 11 1006.8 1005.8 0.0
20/01:30pm 39.4 37.7 12.3 20 16.6 NNW 13 24 7 13 1007.4 1006.4 0.0
20/01:00pm 38.9 38.5 14.0 23 15.6 WNW 9 17 5 9 1008.1 1007.0 0.0
20/12:30pm 37.9 37.0 13.8 23 15.0 N 11 20 6 11 1008.8 1007.7 0.0
20/12:00pm 38.6 38.9 15.0 24 15.0 W 7 15 4 8 1009.4 1008.3 0.0
20/11:30am 37.1 37.4 16.1 29 13.4 WSW 9 15 5 8 1009.8 1008.7 0.0
20/11:00am 35.6 35.1 16.8 32 12.1 NNW 15 20 8 11 1010.3 1009.2 0.0
20/10:30am 35.6 37.0 17.3 33 11.9 ESE 6 13 3 7 1010.6 1009.5 0.0
20/10:00am 33.9 34.7 17.2 37 10.7 NNW 9 15 5 8 1011.0 1009.9 0.0
20/09:30am 32.9 34.2 17.5 39 9.9 WSW 7 15 4 8 1011.1 1010.0 0.0
20/09:00am 31.9 32.3 18.1 43 8.9 W 13 20 7 11 1011.0 1009.9 0.0
20/08:30am 31.1 31.5 18.1 46 8.4 W 13 20 7 11 1010.8 1009.7 0.0
20/08:00am 30.2 30.7 18.3 49 7.7 W 13 20 7 11 1010.6 1009.5 0.0
20/07:30am 29.4 30.2 18.2 51 7.2 W 11 15 6 8 1010.4 1009.3 0.0
20/07:00am 28.1 29.8 18.5 56 6.2 W 7 9 4 5 1010.2 1009.1 0.0
20/06:30am 26.8 29.2 18.9 62 5.1 W 4 7 2 4 1009.8 1008.7 0.0
20/06:00am 26.5 28.4 18.9 63 4.9 W 7 11 4 6 1009.6 1008.5 0.0
20/05:30am 27.5 30.1 18.5 58 5.8 NW 2 7 1 4 1009.2 1008.1 0.0
20/05:00am 28.6 30.6 18.7 55 6.4 N 6 7 3 4 1008.9 1007.8 0.0
20/04:30am 29.0 30.8 18.7 53 6.7 N 7 11 4 6 1008.8 1007.7 0.0
20/04:00am 29.3 30.5 19.0 53 6.7 N 11 15 6 8 1008.6 1007.5 0.0
20/03:30am 29.5 31.0 18.9 53 6.9 N 9 13 5 7 1008.6 1007.5 0.0
20/03:00am 29.9 31.4 19.0 52 7.1 NNW 9 11 5 6 1008.6 1007.5 0.0
20/02:30am 30.1 31.2 18.8 50 7.4 NNW 11 17 6 9 1008.8 1007.7 0.0
20/02:00am 30.4 30.7 18.8 50 7.5 NNW 15 20 8 11 1009.1 1008.0 0.0
20/01:30am 30.8 30.6 18.5 47 8.0 NNW 17 24 9 13 1009.3 1008.2 0.0
20/01:00am 31.1 30.7 18.1 46 8.4 NNW 17 24 9 13 1009.6 1008.5 0.0
20/12:30am 31.4 30.0 18.0 44 8.7 NNW 22 28 12 15 1009.6 1008.5 0.0
20/12:00am 31.8 30.8 18.0 43 8.9 NNW 20 35 11 19 1009.9 1008.8 0.0
 
Date/Time
CST
Temp
°C
App
Temp
°C
Dew
Point
°C
Rel
Hum
%
Delta-T
°C
Wind Press
QNH
hPa
Press
MSL
hPa
Rain since
9am
mm
Dir  Spd
km/h
Gust
km/h
Spd
kts
Gust
kts
19/11:30pm 32.0 30.8 17.5 42 9.3 NNW 20 32 11 17 1009.9 1008.8 0.0
19/11:00pm 32.3 29.4 16.2 38 10.2 NW 26 44 14 24 1009.7 1008.6 0.0
19/10:30pm 33.3 29.5 14.8 32 11.5 NW 28 39 15 21 1009.2 1008.1 0.0
19/10:00pm 33.0 29.6 10.4 25 13.1 WNW 19 30 10 16 1008.7 1007.6 0.0
19/09:30pm 31.2 30.6 7.6 23 13.0 CALM 0 0 0 0 1007.9 1006.9 0.0
19/09:00pm 32.4 30.3 5.8 19 14.3 ENE 6 7 3 4 1007.7 1006.7 0.0
19/08:30pm 33.5 31.1 5.1 17 15.2 ENE 7 9 4 5 1007.4 1006.4 0.0
19/08:00pm 31.9 30.9 5.4 19 14.1 CALM 0 4 0 2 1007.3 1006.3 0.0
19/07:30pm 33.6 32.1 5.2 17 15.3 ESE 2 7 1 4 1006.9 1005.9 0.0
19/07:00pm 35.6 33.1 4.0 14 16.8 SSE 6 7 3 4 1006.6 1005.6 0.0
19/06:30pm 37.8 34.8 1.0 10 18.9 ENE 6 7 3 4 1006.3 1005.3 0.0
19/06:00pm 38.9 34.9 0.3 9 19.8 ENE 11 15 6 8 1005.6 1004.6 0.0
19/05:30pm 39.7 35.4 0.9 9 20.2 ESE 13 17 7 9 1005.5 1004.5 0.0
19/05:00pm 40.2 34.9 -0.3 8 20.7 E 17 24 9 13 1005.3 1004.3 0.0
19/04:30pm 41.3 36.2 0.5 8 21.3 E 17 35 9 19 1005.3 1004.3 0.0
19/04:00pm 41.7 34.9 0.8 8 21.4 ESE 26 35 14 19 1005.2 1004.1 0.0
19/03:30pm 41.1 37.0 2.0 9 20.8 ESE 13 33 7 18 1005.5 1004.5 0.0
19/03:00pm 41.2 37.1 2.0 9 20.9 SE 13 26 7 14 1005.9 1004.9 0.0
19/02:30pm 40.6 37.7 4.4 11 19.9 SE 9 20 5 11 1006.3 1005.3 0.0
19/02:00pm 39.7 36.2 7.2 14 18.5 SE 15 26 8 14 1006.9 1005.9 0.0
19/01:30pm 39.9 36.2 6.3 13 18.9 SE 15 30 8 16 1007.3 1006.3 0.0
19/01:00pm 38.6 35.5 7.4 15 17.7 ESE 13 32 7 17 1008.2 1007.1 0.0
19/12:30pm 39.0 37.3 11.2 19 16.7 SW 11 15 6 8 1008.9 1007.8 0.0
19/12:00pm 37.6 37.2 12.9 23 15.2 NNW 7 17 4 9 1009.5 1008.4 0.0
19/11:30am 37.4 37.0 15.2 26 14.1 NNW 11 19 6 10 1010.1 1009.0 0.0
19/11:00am 35.8 35.9 16.5 31 12.4 WSW 11 22 6 12 1010.6 1009.5 0.0
19/10:30am 35.3 35.6 17.0 33 11.8 WSW 11 26 6 14 1011.1 1010.0 0.0
19/10:00am 34.1 34.5 18.2 39 10.4 W 13 20 7 11 1011.4 1010.3 0.0
19/09:30am 33.0 32.9 18.7 42 9.4 WNW 17 26 9 14 1011.6 1010.5 0.0
19/09:00am 32.2 32.6 19.1 45 8.6 W 15 24 8 13 1011.8 1010.7 0.0
19/08:30am 31.7 33.0 19.3 47 8.2 WNW 11 19 6 10 1011.8 1010.7 0.0
19/08:00am 30.5 31.8 19.2 51 7.4 WSW 11 17 6 9 1011.8 1010.7 0.0
19/07:30am 29.9 31.1 19.0 52 7.1 NW 11 13 6 7 1011.6 1010.5 0.0
19/07:00am 28.8 30.9 18.9 55 6.4 N 6 9 3 5 1011.1 1010.0 0.0
19/06:30am 25.8 28.7 18.2 63 4.8 CALM 0 0 0 0 1010.7 1009.6 0.0
19/06:00am 26.1 29.3 18.8 64 4.7 CALM 0 0 0 0 1010.2 1009.1 0.0
19/05:30am 27.5 29.9 18.8 59 5.6 N 4 7 2 4 1009.7 1008.6 0.0
19/05:00am 28.3 30.1 18.7 56 6.2 NNW 7 9 4 5 1009.5 1008.4 0.0
19/04:30am 28.8 30.4 19.1 55 6.3 N 9 11 5 6 1009.2 1008.1 0.0
19/04:00am 29.2 30.8 19.2 54 6.5 N 9 13 5 7 1009.3 1008.2 0.0
19/03:30am 29.4 30.7 19.4 55 6.6 NNW 11 15 6 8 1009.2 1008.1 0.0
19/03:00am 29.5 30.4 19.2 54 6.7 NW 13 17 7 9 1009.1 1008.0 0.0
19/02:30am 29.8 30.3 19.2 53 6.9 NW 15 19 8 10 1009.1 1008.0 0.0
19/02:00am 30.3 30.8 19.3 51 7.2 NNW 15 20 8 11 1009.5 1008.4 0.0
19/01:30am 30.7 30.5 19.4 51 7.4 NNW 19 30 10 16 1009.8 1008.7 0.0
19/01:00am 31.1 31.2 19.1 48 7.9 NNW 17 22 9 12 1010.2 1009.1 0.0
19/12:30am 31.3 31.5 19.3 49 7.9 NNW 17 26 9 14 1010.4 1009.3 0.0
19/12:00am 31.5 30.7 19.2 48 8.1 NW 22 28 12 15 1010.4 1009.3 0.0
 
Date/Time
CST
Temp
°C
App
Temp
°C
Dew
Point
°C
Rel
Hum
%
Delta-T
°C
Wind Press
QNH
hPa
Press
MSL
hPa
Rain since
9am
mm
Dir  Spd
km/h
Gust
km/h
Spd
kts
Gust
kts
18/11:30pm 32.1 31.4 19.4 47 8.4 NW 22 30 12 16 1010.5 1009.4 0.0
18/11:00pm 32.8 30.8 18.2 42 9.5 NW 26 35 14 19 1010.1 1009.0 0.0
18/10:53pm 33.1 31.6 17.7 40 9.9 NNW 22 39 12 21 1010.0 1008.9 0.0
18/10:30pm 31.0 28.9 8.1 24 12.7 ENE 9 17 5 9 1009.5 1008.4 0.0
18/10:00pm 29.5 28.0 8.5 27 11.6 E 6 7 3 4 1009.3 1008.2 0.0
18/09:30pm 30.6 28.5 8.3 25 12.4 ESE 9 9 5 5 1009.1 1008.0 0.0
18/09:00pm 31.1 29.0 8.2 24 12.7 ESE 9 9 5 5 1008.9 1007.8 0.0
18/08:30pm 32.0 30.3 8.3 23 13.3 SE 7 9 4 5 1008.8 1007.7 0.0
18/08:00pm 32.9 31.0 7.7 21 14.0 ESE 7 9 4 5 1008.6 1007.5 0.0
18/07:30pm 34.9 31.9 6.2 17 15.8 ESE 11 13 6 7 1008.3 1007.2 0.0
18/07:00pm 36.5 33.8 5.7 15 16.9 E 9 9 5 5 1007.8 1006.8 0.0
18/06:30pm 37.8 33.8 4.7 13 18.0 ENE 15 19 8 10 1007.4 1006.4 0.0
18/06:00pm 38.8 34.5 5.4 13 18.5 E 17 22 9 12 1006.9 1005.9 0.0
18/05:30pm 39.7 35.7 5.0 12 19.2 ENE 15 26 8 14 1006.7 1005.7 0.0
18/05:00pm 39.8 35.8 5.1 12 19.2 ESE 15 24 8 13 1006.7 1005.7 0.0
18/04:30pm 40.7 36.7 3.1 10 20.3 NE 13 20 7 11 1006.6 1005.6 0.0
18/04:00pm 41.0 35.4 3.4 10 20.4 ESE 22 37 12 20 1006.4 1005.4 0.0
18/03:30pm 40.0 34.6 2.6 10 20.0 ESE 20 30 11 16 1007.0 1006.0 0.0
18/03:00pm 39.9 34.1 2.5 10 19.9 ESE 22 33 12 18 1007.4 1006.4 0.0
18/02:30pm 41.0 35.8 3.4 10 20.4 ENE 20 37 11 20 1007.8 1006.8 0.0
18/02:00pm 41.5 36.3 3.7 10 20.6 ENE 20 41 11 22 1008.4 1007.3 0.0
18/01:30pm 39.5 35.4 6.0 13 18.7 NE 17 26 9 14 1008.9 1007.8 0.0
18/01:00pm 38.0 35.9 9.6 18 16.6 NNE 11 17 6 9 1009.3 1008.2 0.0
18/12:30pm 39.3 36.5 11.4 19 16.9 ESE 17 35 9 19 1009.9 1008.8 0.0
18/12:00pm 37.4 36.0 12.1 22 15.3 NW 11 17 6 9 1010.6 1009.5 0.0
18/11:30am 37.0 36.8 13.7 25 14.4 WNW 7 11 4 6 1011.1 1010.0 0.0
18/11:00am 35.5 35.5 15.3 30 12.7 W 9 17 5 9 1011.9 1010.8 0.0

Other formats

Comma delimited format used in spreadsheet applications
http://www.bom.gov.au/fwo/IDD60801/IDD60801.94131.axf

JavaScript Object Notation format (JSON) in row-major order
http://www.bom.gov.au/fwo/IDD60801/IDD60801.94131.json

Data quality

Most of these data are generated automatically and are frequently updated. Quality checks on data are not normally performed. It is possible for incorrect values to appear. Refer to information at About Latest Weather Observations and please check the disclaimer before using these data.